Time;durP1;ratioP1;P1;durP2;ratioP2;P2;SDS_P1;SDS_P2;PMS_P1;PMS_P2;Temp;Humidity;BMP_temperature;BMP_pressure;BME280_temperature;BME280_humidity;BME280_pressure;Samples;Min_cycle;Max_cycle;Signal;HPM_P1;HPM_P2
2023/09/30 00:01:22;;;;;;;12.73;4.28;;;;;;;-146.27;76.39;82249.59;5019981;28;20025;-67
2023/09/30 00:03:47;;;;;;;14.05;4.40;;;;;;;-146.27;76.54;82283.75;5024750;28;20063;-68
2023/09/30 00:06:13;;;;;;;13.43;5.20;;;;;;;-146.27;76.81;82251.59;5015303;28;20030;-68
2023/09/30 00:08:39;;;;;;;14.68;4.70;;;;;;;-146.27;76.79;82307.84;5020068;28;20099;-70
2023/09/30 00:11:05;;;;;;;10.48;4.40;;;;;;;-146.27;77.26;82215.44;5028113;28;20108;-68
2023/09/30 00:13:31;;;;;;;9.20;4.13;;;;;;;-146.27;76.91;82217.47;5015705;28;20049;-73
2023/09/30 00:15:57;;;;;;;12.18;4.65;;;;;;;-146.27;76.68;82219.47;5025634;28;20037;-73
2023/09/30 00:18:22;;;;;;;18.00;8.48;;;;;;;-146.27;76.69;82231.53;5019435;28;20147;-73
2023/09/30 00:20:48;;;;;;;38.40;19.88;;;;;;;-146.27;76.41;82237.53;5014490;28;20069;-73
2023/09/30 00:23:13;;;;;;;31.63;17.88;;;;;;;-146.27;76.75;82235.53;5019706;28;20032;-73
2023/09/30 00:25:39;;;;;;;46.63;24.30;;;;;;;-146.27;76.80;82219.47;5016020;28;20025;-73
2023/09/30 00:28:05;;;;;;;40.53;20.23;;;;;;;-146.27;76.81;82177.28;5020176;28;20473;-73
2023/09/30 00:30:30;;;;;;;36.78;17.35;;;;;;;-146.27;76.79;82219.47;5027357;28;20078;-72
2023/09/30 00:32:55;;;;;;;34.40;16.42;;;;;;;-146.27;76.74;82191.34;5023878;28;20078;-73
2023/09/30 00:35:21;;;;;;;33.63;14.32;;;;;;;-146.27;77.49;82219.47;5030616;28;20021;-71
2023/09/30 00:37:46;;;;;;;40.50;15.05;;;;;;;-146.27;77.13;82227.50;5023622;28;20236;-72
2023/09/30 00:40:13;;;;;;;36.47;14.35;;;;;;;-146.27;76.80;82245.59;5019936;28;20026;-72
2023/09/30 00:42:39;;;;;;;28.75;15.27;;;;;;;-146.27;76.05;82219.47;5017175;28;20042;-71
2023/09/30 00:45:05;;;;;;;36.08;15.18;;;;;;;-146.27;76.33;82233.53;5025391;28;20031;-71
2023/09/30 00:47:33;;;;;;;31.17;14.70;;;;;;;-146.27;76.96;82227.50;5031073;28;20108;-71
2023/09/30 00:49:59;;;;;;;23.00;10.05;;;;;;;-146.27;77.47;82227.50;5026706;28;20033;-73
2023/09/30 00:52:24;;;;;;;26.08;10.13;;;;;;;-146.27;77.79;82247.59;5019313;28;20060;-72
2023/09/30 00:54:51;;;;;;;17.02;8.15;;;;;;;-146.27;77.57;82263.66;5021578;28;20038;-71
2023/09/30 00:57:20;;;;;;;15.00;7.53;;;;;;;-146.27;77.69;82235.53;5028866;28;20029;-71
2023/09/30 00:59:46;;;;;;;21.67;6.15;;;;;;;-146.27;77.61;82237.53;5021806;28;20052;-71
2023/09/30 01:02:12;;;;;;;13.98;5.72;;;;;;;-146.27;77.32;82215.44;5022818;28;20443;-69
2023/09/30 01:04:44;;;;;;;17.60;7.10;;;;;;;-146.27;77.42;82239.56;5015874;28;20025;-71
2023/09/30 01:07:11;;;;;;;13.00;5.95;;;;;;;-146.27;77.45;82243.56;5023839;28;20428;-71
2023/09/30 01:09:36;;;;;;;14.88;6.68;;;;;;;-146.27;77.87;82263.66;5024173;28;20500;-72
2023/09/30 01:12:02;;;;;;;12.88;5.30;;;;;;;-146.27;78.11;82275.72;5020656;28;20029;-71
2023/09/30 01:14:31;;;;;;;20.40;6.82;;;;;;;-146.27;78.24;82281.75;5016581;28;20136;-71
2023/09/30 01:16:57;;;;;;;15.43;6.88;;;;;;;-146.27;77.35;82259.66;5022177;28;20030;-71
2023/09/30 01:19:24;;;;;;;12.73;5.90;;;;;;;-146.27;77.29;82285.75;5026917;28;20087;-72
2023/09/30 01:21:54;;;;;;;12.80;5.65;;;;;;;-146.27;77.34;82285.75;5026652;28;20030;-71
2023/09/30 01:24:20;;;;;;;14.77;5.07;;;;;;;-146.27;78.21;82279.72;5019569;28;20360;-71
2023/09/30 01:26:45;;;;;;;13.73;5.60;;;;;;;-146.27;78.39;82297.81;5017553;28;20037;-70
2023/09/30 01:29:11;;;;;;;14.43;5.25;;;;;;;-146.27;78.14;82335.97;5017681;28;20366;-70
2023/09/30 01:31:37;;;;;;;19.08;5.60;;;;;;;-146.27;78.93;82368.13;5022672;28;20254;-72
2023/09/30 01:34:02;;;;;;;16.02;5.32;;;;;;;-146.27;78.57;82335.97;5023015;28;20025;-71
2023/09/30 01:36:28;;;;;;;13.75;5.13;;;;;;;-146.27;78.07;82319.91;5026127;28;20023;-71
2023/09/30 01:38:54;;;;;;;15.32;5.43;;;;;;;-146.27;78.82;82348.03;5023623;28;20037;-69
2023/09/30 01:41:19;;;;;;;12.32;5.10;;;;;;;-146.27;78.55;82348.03;5026950;28;20026;-72
2023/09/30 01:43:44;;;;;;;13.23;5.28;;;;;;;-146.27;78.63;82358.06;5021611;28;20603;-72
2023/09/30 01:46:10;;;;;;;12.68;5.18;;;;;;;-146.27;78.92;82335.97;5028687;28;20476;-70
2023/09/30 01:48:36;;;;;;;16.50;5.28;;;;;;;-146.27;79.12;82342.00;5027137;28;20017;-73
2023/09/30 01:51:01;;;;;;;12.23;5.32;;;;;;;-146.27;79.10;82358.06;5029199;28;20687;-71
2023/09/30 01:53:27;;;;;;;14.30;5.65;;;;;;;-146.27;79.44;82295.81;5026882;28;20033;-72
2023/09/30 01:55:52;;;;;;;12.73;5.15;;;;;;;-146.27;79.65;82253.63;5018866;28;20021;-70
2023/09/30 01:58:18;;;;;;;16.65;5.78;;;;;;;-146.27;79.58;82247.59;5020185;28;20378;-72
2023/09/30 02:00:44;;;;;;;12.43;6.03;;;;;;;-146.27;79.57;82195.38;5022964;28;20545;-71
2023/09/30 02:03:09;;;;;;;12.70;5.68;;;;;;;-146.27;79.59;82199.38;5018934;28;20034;-71
2023/09/30 02:05:36;;;;;;;15.25;5.93;;;;;;;-146.27;79.28;82227.50;5025100;28;20021;-71
2023/09/30 02:08:05;;;;;;;14.77;5.20;;;;;;;-146.27;79.42;82235.53;5030751;28;20081;-72
2023/09/30 02:10:32;;;;;;;18.85;6.47;;;;;;;-146.27;79.38;82159.22;5017170;28;20087;-70
2023/09/30 02:12:59;;;;;;;15.23;5.57;;;;;;;-146.27;79.46;82191.34;5021686;28;20457;-71
2023/09/30 02:15:24;;;;;;;11.57;5.53;;;;;;;-146.27;79.65;82211.44;5011177;28;20359;-70
2023/09/30 02:17:49;;;;;;;11.88;5.18;;;;;;;-146.27;79.55;82169.25;5029684;28;20025;-70
2023/09/30 02:20:18;;;;;;;15.52;5.88;;;;;;;-146.27;79.42;82175.28;5024937;28;20032;-70
2023/09/30 02:22:45;;;;;;;16.85;5.40;;;;;;;-146.27;79.45;82179.28;5028139;28;20448;-71
2023/09/30 02:25:12;;;;;;;15.60;5.75;;;;;;;-146.27;79.01;82143.13;5013441;28;20029;-71
2023/09/30 02:27:41;;;;;;;17.60;5.70;;;;;;;-146.27;78.79;82165.22;5020687;28;20037;-71
2023/09/30 02:30:09;;;;;;;17.23;6.70;;;;;;;-146.27;78.88;82121.03;5022506;28;20029;-71
2023/09/30 02:32:35;;;;;;;12.63;5.63;;;;;;;-146.27;79.01;82169.25;5020419;28;20021;-71
2023/09/30 02:35:01;;;;;;;14.32;5.70;;;;;;;-146.27;79.15;82183.31;5019649;28;20113;-71
2023/09/30 02:37:26;;;;;;;24.52;6.30;;;;;;;-146.27;78.90;82129.06;5025146;28;20028;-72
2023/09/30 02:39:51;;;;;;;7.97;4.97;;;;;;;-146.27;79.13;82155.19;5025470;28;20639;-71
2023/09/30 02:42:17;;;;;;;11.05;5.65;;;;;;;-146.27;79.29;82135.09;5026319;28;20551;-71
2023/09/30 02:44:42;;;;;;;14.30;6.10;;;;;;;-146.27;79.36;82145.16;5024420;28;20974;-72
2023/09/30 02:47:08;;;;;;;17.48;5.68;;;;;;;-146.27;79.39;82145.16;5015047;28;20029;-71
2023/09/30 02:49:34;;;;;;;10.60;5.53;;;;;;;-146.27;79.53;82173.28;5026334;28;20021;-71
2023/09/30 02:51:59;;;;;;;16.20;5.97;;;;;;;-146.27;79.13;82171.25;5027800;28;20452;-72
2023/09/30 02:54:25;;;;;;;16.17;6.15;;;;;;;-146.27;78.90;82143.13;5021291;28;20029;-72
2023/09/30 02:56:52;;;;;;;13.57;6.30;;;;;;;-146.27;79.20;82119.03;5014771;28;20378;-71
2023/09/30 02:59:18;;;;;;;11.98;6.03;;;;;;;-146.27;79.23;82143.13;5013036;28;20028;-71
2023/09/30 03:01:44;;;;;;;16.58;6.95;;;;;;;-146.27;79.25;82111.00;5015520;28;20576;-69
2023/09/30 03:04:12;;;;;;;16.00;6.88;;;;;;;-146.27;79.35;82131.09;5024114;28;20083;-70
2023/09/30 03:06:38;;;;;;;16.77;7.43;;;;;;;-146.27;79.48;82127.06;5028039;28;20108;-70
2023/09/30 03:09:04;;;;;;;17.27;6.82;;;;;;;-146.27;79.70;82113.00;5022614;28;20045;-71
2023/09/30 03:11:34;;;;;;;12.75;7.00;;;;;;;-146.27;79.47;82111.00;5014423;28;20097;-70
2023/09/30 03:13:59;;;;;;;14.50;6.60;;;;;;;-146.27;79.72;82115.00;5020414;28;20662;-71
2023/09/30 03:16:25;;;;;;;17.70;7.03;;;;;;;-146.27;79.74;82111.00;5022626;28;20029;-69
2023/09/30 03:18:50;;;;;;;14.50;7.07;;;;;;;-146.27;79.87;82141.13;5017404;28;20037;-70
2023/09/30 03:21:16;;;;;;;12.27;6.50;;;;;;;-146.27;79.74;82143.13;5020694;28;20036;-69
2023/09/30 03:23:43;;;;;;;14.73;6.63;;;;;;;-146.27;79.39;82115.00;5028343;28;20120;-70
2023/09/30 03:26:09;;;;;;;15.77;6.97;;;;;;;-146.27;79.56;82127.06;5029258;28;20036;-70
2023/09/30 03:28:37;;;;;;;10.60;6.53;;;;;;;-146.27;79.42;82137.13;5023206;28;20913;-70
2023/09/30 03:31:04;;;;;;;15.63;7.75;;;;;;;-146.27;79.37;82141.13;5029079;28;20024;-70
2023/09/30 03:33:33;;;;;;;13.70;6.32;;;;;;;-146.27;79.44;82115.00;5032565;28;20033;-69
2023/09/30 03:35:58;;;;;;;12.23;7.30;;;;;;;-146.27;79.55;82161.22;5021419;28;20065;-69
2023/09/30 03:38:25;;;;;;;17.98;6.93;;;;;;;-146.27;79.83;82104.97;5024389;28;20056;-69
2023/09/30 03:40:53;;;;;;;15.57;6.65;;;;;;;-146.27;79.53;82127.06;5030574;28;20047;-69
2023/09/30 03:43:19;;;;;;;15.70;7.38;;;;;;;-146.27;79.77;82121.03;5027602;28;20060;-69
2023/09/30 03:45:45;;;;;;;14.57;6.90;;;;;;;-146.27;79.78;82123.06;5026052;28;20049;-71
2023/09/30 03:48:11;;;;;;;13.73;7.10;;;;;;;-146.27;79.61;82111.00;5020048;28;20079;-73
2023/09/30 03:50:37;;;;;;;19.88;7.15;;;;;;;-146.27;79.55;82102.97;5016069;28;20413;-73
2023/09/30 03:53:07;;;;;;;21.92;7.40;;;;;;;-146.27;79.33;82121.03;5027800;28;20087;-70
2023/09/30 03:55:33;;;;;;;13.05;6.88;;;;;;;-146.27;79.37;82086.91;5027740;28;20056;-71
2023/09/30 03:58:00;;;;;;;17.15;7.50;;;;;;;-146.27;79.50;82121.03;5026350;28;20083;-69
2023/09/30 04:00:26;;;;;;;24.25;8.65;;;;;;;-146.27;79.85;82102.97;5024264;28;20478;-68
2023/09/30 04:02:57;;;;;;;21.02;7.78;;;;;;;-146.27;79.77;82070.81;5030742;28;20033;-68
2023/09/30 04:05:29;;;;;;;19.73;7.63;;;;;;;-146.27;79.77;82090.91;5021488;28;20017;-68
2023/09/30 04:07:55;;;;;;;22.63;9.43;;;;;;;-146.27;79.75;82129.06;5028506;28;20484;-68
2023/09/30 04:10:22;;;;;;;16.98;8.13;;;;;;;-146.27;79.74;82094.94;5022754;28;20480;-68
2023/09/30 04:12:48;;;;;;;19.27;8.68;;;;;;;-146.27;79.73;82082.88;5022497;28;20036;-68
2023/09/30 04:15:13;;;;;;;26.45;8.43;;;;;;;-146.27;79.82;82117.03;5020624;28;20500;-68
2023/09/30 04:17:39;;;;;;;15.95;7.78;;;;;;;-146.27;79.83;82109.00;5023614;28;20034;-70
2023/09/30 04:20:16;;;;;;;15.35;8.25;;;;;;;-146.27;79.82;82094.94;5021901;28;20026;-68
2023/09/30 04:22:48;;;;;;;21.83;8.18;;;;;;;-146.27;79.45;82090.91;5023429;28;20037;-70
2023/09/30 04:25:16;;;;;;;17.70;8.88;;;;;;;-146.27;79.92;82109.00;5012724;28;20033;-70
2023/09/30 04:27:42;;;;;;;16.83;8.80;;;;;;;-146.27;79.92;82127.06;5030580;28;20041;-69
2023/09/30 04:30:11;;;;;;;24.50;10.20;;;;;;;-146.27;80.27;82094.94;5032188;28;20021;-69
2023/09/30 04:32:38;;;;;;;21.85;9.25;;;;;;;-146.27;79.96;82131.09;5027306;28;20030;-69
2023/09/30 04:35:04;;;;;;;17.58;8.45;;;;;;;-146.27;79.75;82094.94;5022240;28;20485;-69
2023/09/30 04:37:30;;;;;;;20.83;9.68;;;;;;;-146.27;80.04;82070.81;5023054;28;20049;-69
2023/09/30 04:39:55;;;;;;;15.65;8.10;;;;;;;-146.27;80.14;82135.09;5021847;28;20029;-70
2023/09/30 04:42:21;;;;;;;18.52;9.65;;;;;;;-146.27;80.42;82113.00;5018255;28;20021;-69
2023/09/30 04:44:46;;;;;;;21.42;9.95;;;;;;;-146.27;80.26;82135.09;5021434;28;20017;-69
2023/09/30 04:47:12;;;;;;;22.55;9.43;;;;;;;-146.27;80.21;82111.00;5015363;28;20113;-69
2023/09/30 04:49:37;;;;;;;21.83;8.98;;;;;;;-146.27;80.50;82096.94;5018610;28;20375;-70
2023/09/30 04:52:05;;;;;;;24.23;9.25;;;;;;;-146.27;80.14;82082.88;5015320;28;20025;-69
2023/09/30 04:54:30;;;;;;;18.08;9.63;;;;;;;-146.27;80.46;82115.00;5023318;28;20025;-66
2023/09/30 04:56:56;;;;;;;22.17;9.52;;;;;;;-146.27;80.48;82106.97;5022206;28;20481;-67
2023/09/30 04:59:22;;;;;;;22.75;9.68;;;;;;;-146.27;80.30;82121.03;5027228;28;20557;-68
2023/09/30 05:01:47;;;;;;;21.05;9.90;;;;;;;-146.27;80.43;82135.09;5023813;28;20525;-67
2023/09/30 05:04:12;;;;;;;20.83;10.35;;;;;;;-146.27;80.23;82115.00;5026558;28;20031;-67
2023/09/30 05:06:38;;;;;;;19.70;9.93;;;;;;;-146.27;80.30;82127.06;5016400;28;20065;-67
2023/09/30 05:09:04;;;;;;;24.58;10.27;;;;;;;-146.27;80.24;82135.09;5011807;28;20556;-69
2023/09/30 05:11:31;;;;;;;19.75;10.38;;;;;;;-146.27;80.24;82149.16;5013066;28;20022;-66
2023/09/30 05:13:56;;;;;;;24.40;10.23;;;;;;;-146.27;80.27;82119.03;5011530;28;20053;-69
2023/09/30 05:16:22;;;;;;;29.98;10.93;;;;;;;-146.27;80.26;82165.22;5014962;28;20025;-66
2023/09/30 05:18:48;;;;;;;18.02;9.43;;;;;;;-146.27;80.17;82159.22;5021144;28;20909;-68
2023/09/30 05:21:13;;;;;;;29.92;11.38;;;;;;;-146.27;79.96;82129.06;5020914;28;20075;-67
2023/09/30 05:23:39;;;;;;;15.70;8.75;;;;;;;-146.27;80.01;82127.06;5028475;28;20037;-68
2023/09/30 05:26:04;;;;;;;19.63;10.32;;;;;;;-146.27;80.04;82135.09;5027062;28;20697;-68
2023/09/30 05:28:29;;;;;;;23.58;9.90;;;;;;;-146.27;79.97;82129.06;5023639;28;20041;-67
2023/09/30 05:30:55;;;;;;;30.40;10.07;;;;;;;-146.27;80.18;82135.09;5012232;28;20021;-67
2023/09/30 05:33:22;;;;;;;27.55;11.07;;;;;;;-146.27;80.29;82106.97;5024911;28;20454;-67
2023/09/30 05:35:47;;;;;;;25.10;11.70;;;;;;;-146.27;80.30;82125.06;5023979;28;20079;-68
2023/09/30 05:38:13;;;;;;;21.77;11.63;;;;;;;-146.27;80.07;82106.97;5016682;28;20033;-69
2023/09/30 05:40:39;;;;;;;26.77;11.73;;;;;;;-146.27;80.02;82119.03;5016018;28;20060;-68
2023/09/30 05:43:05;;;;;;;22.75;11.30;;;;;;;-146.27;80.12;82125.06;5029513;28;20504;-67
2023/09/30 05:45:34;;;;;;;25.30;11.55;;;;;;;-146.27;80.32;82129.06;5015032;28;20056;-67
2023/09/30 05:48:03;;;;;;;24.83;12.10;;;;;;;-146.27;80.05;82113.00;5015673;28;20059;-69
2023/09/30 05:50:29;;;;;;;24.33;11.38;;;;;;;-146.27;80.34;82119.03;5022105;28;20021;-68
2023/09/30 05:52:55;;;;;;;23.95;11.30;;;;;;;-146.27;80.29;82127.06;5017007;28;20177;-70
2023/09/30 05:55:22;;;;;;;24.55;12.38;;;;;;;-146.27;80.13;82127.06;5023958;28;20025;-70
2023/09/30 05:57:51;;;;;;;24.92;11.88;;;;;;;-146.27;80.09;82143.13;5014712;28;20397;-69
2023/09/30 06:00:36;;;;;;;30.38;12.95;;;;;;;-146.27;80.19;82139.13;5023382;28;20072;-69
2023/09/30 06:03:04;;;;;;;26.98;13.27;;;;;;;-146.27;80.20;82106.97;5029475;28;20080;-67
2023/09/30 06:05:30;;;;;;;29.95;13.40;;;;;;;-146.27;80.08;82133.09;5021788;28;20032;-68
2023/09/30 06:07:56;;;;;;;29.73;13.57;;;;;;;-146.27;79.83;82111.00;5018205;28;20504;-68
2023/09/30 06:10:22;;;;;;;24.77;13.70;;;;;;;-146.27;80.10;82117.03;5020351;28;20021;-71
2023/09/30 06:12:49;;;;;;;28.42;14.00;;;;;;;-146.27;80.20;82111.00;5017439;28;20112;-69
2023/09/30 06:15:21;;;;;;;31.73;14.88;;;;;;;-146.27;80.13;82082.88;5024983;28;20084;-69
2023/09/30 06:17:49;;;;;;;27.30;14.40;;;;;;;-146.27;80.19;82082.88;5015229;28;20049;-68
2023/09/30 06:20:17;;;;;;;33.97;13.80;;;;;;;-146.27;80.04;82022.63;5017262;28;20036;-68
2023/09/30 06:22:47;;;;;;;25.70;14.68;;;;;;;-146.27;80.28;82044.72;5016838;28;20546;-68
2023/09/30 06:25:13;;;;;;;27.30;14.52;;;;;;;-146.27;80.57;82008.56;5018077;28;20105;-69
2023/09/30 06:27:39;;;;;;;28.77;14.68;;;;;;;-146.27;80.34;81990.47;5024257;28;20026;-69
2023/09/30 06:30:05;;;;;;;27.83;14.82;;;;;;;-146.27;80.02;81990.47;5020921;28;20501;-71
2023/09/30 06:32:30;;;;;;;24.98;13.05;;;;;;;-146.27;79.81;82002.53;5018424;28;20457;-69
2023/09/30 06:34:56;;;;;;;24.27;13.00;;;;;;;-146.27;79.60;81996.50;5013304;28;20032;-68
2023/09/30 06:37:21;;;;;;;32.75;14.02;;;;;;;-146.27;79.74;81986.47;5020590;28;20997;-69
2023/09/30 06:39:48;;;;;;;30.45;14.93;;;;;;;-146.27;79.92;82004.53;5025344;28;20037;-68
2023/09/30 06:42:13;;;;;;;24.70;13.23;;;;;;;-146.27;79.78;81946.28;5021476;28;20033;-67
2023/09/30 06:44:39;;;;;;;25.85;12.95;;;;;;;-146.27;79.77;81982.44;5018470;28;20037;-70
2023/09/30 06:47:05;;;;;;;26.75;14.05;;;;;;;-146.27;79.95;81906.13;5015931;28;20397;-69
2023/09/30 06:49:34;;;;;;;32.30;13.90;;;;;;;-146.27;79.96;81916.16;5024769;28;20099;-68
2023/09/30 06:51:59;;;;;;;32.90;13.98;;;;;;;-146.27;79.91;81940.25;5025217;28;20032;-70
2023/09/30 06:54:24;;;;;;;31.85;13.45;;;;;;;-146.27;79.86;81940.25;5020914;28;20034;-70
2023/09/30 06:56:50;;;;;;;28.50;15.10;;;;;;;-146.27;79.72;81974.41;5022740;28;20025;-67
2023/09/30 06:59:15;;;;;;;21.98;14.20;;;;;;;-146.27;79.72;82010.56;5028872;28;20026;-69
2023/09/30 07:01:42;;;;;;;26.15;13.77;;;;;;;-146.27;79.61;81952.31;5015227;28;20014;-68
2023/09/30 07:04:07;;;;;;;27.33;14.40;;;;;;;-146.27;79.57;81974.41;5021263;28;20021;-68
2023/09/30 07:06:33;;;;;;;24.27;13.48;;;;;;;-146.27;79.50;81988.47;5033874;28;20532;-70
2023/09/30 07:08:58;;;;;;;27.02;13.55;;;;;;;-146.27;79.68;82002.53;5027334;28;20091;-70
2023/09/30 07:11:28;;;;;;;27.85;15.20;;;;;;;-146.27;79.75;82024.63;5018152;28;20025;-70
2023/09/30 07:13:54;;;;;;;24.58;13.90;;;;;;;-146.27;79.39;81968.38;5032952;28;20072;-73
2023/09/30 07:16:20;;;;;;;28.52;14.55;;;;;;;-146.27;79.33;81962.34;5024686;28;20029;-73
2023/09/30 07:18:45;;;;;;;27.10;15.27;;;;;;;-146.27;79.44;81970.41;5025527;28;20121;-74
2023/09/30 07:21:13;;;;;;;24.70;13.90;;;;;;;-146.27;79.75;81960.34;5022047;28;20032;-73
2023/09/30 07:23:38;;;;;;;26.25;14.95;;;;;;;-146.27;79.98;81958.34;5017032;28;20042;-73
2023/09/30 07:26:04;;;;;;;29.63;14.02;;;;;;;-146.27;79.66;81944.28;5026801;28;20402;-73
2023/09/30 07:28:30;;;;;;;29.95;14.02;;;;;;;-146.27;79.72;81863.94;5026571;28;20044;-74
2023/09/30 07:30:55;;;;;;;31.52;15.05;;;;;;;-146.27;79.69;81861.94;5030404;28;20104;-74
2023/09/30 07:33:20;;;;;;;33.08;14.88;;;;;;;-146.27;79.78;81837.81;5028062;28;20037;-73
2023/09/30 07:35:46;;;;;;;28.60;13.85;;;;;;;-146.27;79.21;81813.72;5017473;28;20026;-75
2023/09/30 07:38:11;;;;;;;26.73;14.18;;;;;;;-146.27;79.15;81795.66;5022435;28;20022;-73
2023/09/30 07:40:37;;;;;;;25.40;13.55;;;;;;;-146.27;78.84;81743.44;5023415;28;20034;-73
2023/09/30 07:43:02;;;;;;;24.88;13.75;;;;;;;-146.27;78.89;81739.41;5026278;28;20079;-74
2023/09/30 07:45:28;;;;;;;26.85;13.50;;;;;;;-146.27;78.90;81739.41;5030706;28;20562;-74
2023/09/30 07:47:54;;;;;;;23.05;13.38;;;;;;;-146.27;78.61;81755.47;5034330;28;20021;-74
2023/09/30 07:50:19;;;;;;;31.88;13.68;;;;;;;-146.27;78.55;81775.56;5017713;28;20028;-74
2023/09/30 07:52:45;;;;;;;25.40;14.13;;;;;;;-146.27;78.57;81735.41;5015768;28;20508;-74
2023/09/30 07:55:11;;;;;;;25.45;13.18;;;;;;;-146.27;78.30;81731.38;5017195;28;20034;-73
2023/09/30 07:57:36;;;;;;;28.88;13.45;;;;;;;-146.27;77.81;81655.06;5026821;28;20028;-73
2023/09/30 08:00:08;;;;;;;24.73;11.90;;;;;;;-146.27;78.17;81592.78;5021852;28;20045;-72
2023/09/30 08:02:34;;;;;;;23.17;12.73;;;;;;;-146.27;77.72;81612.88;5021098;28;20026;-72
2023/09/30 08:05:00;;;;;;;26.98;11.95;;;;;;;-146.27;77.40;81580.75;5027850;28;20080;-73
2023/09/30 08:07:25;;;;;;;27.48;12.75;;;;;;;-146.27;77.41;81590.78;5013779;28;20034;-73
2023/09/30 08:09:51;;;;;;;26.15;11.50;;;;;;;-146.27;77.26;81554.63;5023386;28;20021;-73
2023/09/30 08:12:17;;;;;;;20.17;10.80;;;;;;;-146.27;77.34;81544.59;5015780;28;20034;-73
2023/09/30 08:14:44;;;;;;;22.90;11.27;;;;;;;-146.27;76.99;81504.44;5023016;28;20128;-74
2023/09/30 08:17:10;;;;;;;21.75;11.07;;;;;;;-146.27;76.14;81476.31;5015154;28;20068;-74
2023/09/30 08:19:36;;;;;;;19.70;10.63;;;;;;;-146.27;75.95;81432.13;5019171;28;20053;-73
2023/09/30 08:22:01;;;;;;;22.45;10.02;;;;;;;-146.27;75.71;81408.03;5024456;28;20502;-73
2023/09/30 08:24:28;;;;;;;19.67;10.23;;;;;;;-146.27;74.71;81349.78;5024165;28;20449;-70
2023/09/30 08:26:55;;;;;;;17.75;9.52;;;;;;;-146.27;70.12;80930.06;5032157;28;20037;-70
2023/09/30 08:29:21;;;;;;;18.83;8.75;;;;;;;-146.27;68.08;80851.75;5030456;28;20021;-70
2023/09/30 08:31:46;;;;;;;16.05;8.48;;;;;;;-146.27;67.38;80843.72;5026349;28;20091;-70
2023/09/30 08:34:14;;;;;;;18.27;8.13;;;;;;;-146.27;65.76;80753.38;5020742;28;20037;-70
2023/09/30 08:36:40;;;;;;;20.77;7.88;;;;;;;-146.27;64.75;80747.34;5027300;28;20033;-71
2023/09/30 08:39:05;;;;;;;16.05;8.05;;;;;;;-146.27;64.09;80673.06;5024662;28;20513;-70
2023/09/30 08:41:33;;;;;;;22.50;8.15;;;;;;;-146.27;62.73;80600.75;5021652;28;20385;-71
2023/09/30 08:44:03;;;;;;;16.95;6.95;;;;;;;-146.27;62.84;80608.78;5021673;28;20061;-72
2023/09/30 08:46:33;;;;;;;14.77;7.20;;;;;;;-146.27;61.82;80399.97;5022610;28;20017;-69
2023/09/30 08:49:02;;;;;;;17.05;7.03;;;;;;;-146.27;59.12;80169.09;5016802;28;20456;-68
2023/09/30 08:51:29;;;;;;;15.27;6.85;;;;;;;-146.27;59.03;80331.72;5021100;28;20470;-70
2023/09/30 08:53:56;;;;;;;14.57;6.72;;;;;;;-146.27;58.21;80138.97;5013384;28;20097;-70
2023/09/30 08:56:27;;;;;;;17.48;6.60;;;;;;;-146.27;57.52;79996.44;5026512;28;20021;-71
2023/09/30 08:58:57;;;;;;;18.95;6.70;;;;;;;-146.27;52.96;79356.06;5015811;28;20029;-69
2023/09/30 09:01:24;;;;;;;12.70;6.18;;;;;;;-146.27;44.89;77838.84;5024492;28;20029;-70
2023/09/30 09:03:52;;;;;;;17.98;5.65;;;;;;;-146.27;64.71;80755.38;5031407;28;20033;-70
2023/09/30 09:06:19;;;;;;;14.90;5.38;;;;;;;-146.27;67.91;81175.06;5026068;28;20026;-70
2023/09/30 09:08:44;;;;;;;11.82;4.78;;;;;;;-146.27;69.05;81251.38;5017237;28;20022;-70
2023/09/30 09:11:11;;;;;;;14.50;5.07;;;;;;;-146.27;69.98;81231.31;5027294;28;20024;-71
2023/09/30 09:13:50;;;;;;;15.40;4.88;;;;;;;-146.27;68.94;81201.19;5023818;28;20041;-68
2023/09/30 09:16:20;;;;;;;13.43;5.07;;;;;;;-146.27;68.46;81225.28;5028688;28;20029;-67
2023/09/30 09:18:49;;;;;;;19.55;4.78;;;;;;;-146.27;70.06;81235.31;5024591;28;20492;-69
2023/09/30 09:21:20;;;;;;;11.57;5.05;;;;;;;-146.27;69.02;81155.00;5018053;28;20078;-69
2023/09/30 09:23:48;;;;;;;13.40;4.68;;;;;;;-146.27;68.33;81281.50;5027528;28;20045;-68
2023/09/30 09:26:31;;;;;;;15.10;4.07;;;;;;;-146.27;68.23;81175.06;5030574;28;20021;-69
2023/09/30 09:28:58;;;;;;;14.38;3.90;;;;;;;-146.27;68.63;81050.56;5028713;28;20445;-68
2023/09/30 09:31:34;;;;;;;10.88;3.65;;;;;;;-146.27;68.14;81132.91;5012247;28;20029;-69
2023/09/30 09:34:00;;;;;;;9.75;4.60;;;;;;;-146.27;68.04;81173.06;5013694;28;20550;-70
2023/09/30 09:36:43;;;;;;;12.63;4.03;;;;;;;-146.27;68.35;81050.56;5027362;28;20385;-70
2023/09/30 09:39:13;;;;;;;9.13;3.25;;;;;;;-146.27;67.11;81018.44;5018848;28;20055;-70
2023/09/30 09:41:50;;;;;;;11.60;3.63;;;;;;;-146.27;67.17;80962.22;5015146;28;20030;-70
2023/09/30 09:44:19;;;;;;;14.55;3.22;;;;;;;-146.27;65.53;80914.00;5022041;28;20516;-71
2023/09/30 09:46:47;;;;;;;9.38;4.03;;;;;;;-146.27;65.77;80978.28;5026121;28;20057;-72
2023/09/30 09:49:12;;;;;;;16.63;4.78;;;;;;;-146.27;66.92;80837.72;5025188;28;20108;-70
2023/09/30 09:51:39;;;;;;;16.15;4.07;;;;;;;-146.27;65.17;80829.69;5020488;28;20148;-71
2023/09/30 09:54:07;;;;;;;12.13;3.45;;;;;;;-146.27;66.00;80751.38;5015559;28;20110;-71
2023/09/30 09:56:36;;;;;;;10.70;2.72;;;;;;;-146.27;62.64;80787.50;5030187;28;20091;-70
2023/09/30 09:59:04;;;;;;;8.68;3.38;;;;;;;-146.27;61.54;80849.75;5022525;28;20036;-72
2023/09/30 10:01:30;;;;;;;5.10;1.65;;;;;;;-146.27;60.20;80869.84;5022256;28;20608;-72
2023/09/30 10:03:56;;;;;;;10.23;1.98;;;;;;;-146.27;58.95;80835.69;5012646;28;20067;-72
2023/09/30 10:06:22;;;;;;;7.63;2.47;;;;;;;-146.27;57.02;80849.75;5036851;28;20150;-72
2023/09/30 10:08:51;;;;;;;8.57;1.85;;;;;;;-146.27;57.72;81018.44;5027243;28;20556;-72
2023/09/30 10:11:20;;;;;;;9.20;2.35;;;;;;;-146.27;57.83;81032.50;5034719;28;20467;-72
2023/09/30 10:13:53;;;;;;;7.93;1.95;;;;;;;-146.27;58.11;81014.41;5019674;28;20133;-71
2023/09/30 10:16:36;;;;;;;9.75;2.17;;;;;;;-146.27;59.02;81032.50;5020265;28;20033;-71
2023/09/30 10:19:18;;;;;;;6.50;1.67;;;;;;;-146.27;59.84;81074.66;5017973;28;20121;-72
2023/09/30 10:22:17;;;;;;;11.60;2.20;;;;;;;-146.27;57.88;81189.13;5019115;28;20029;-72
2023/09/30 10:24:43;;;;;;;8.73;2.10;;;;;;;-146.27;56.25;81213.22;5022336;28;20689;-71
2023/09/30 10:28:00;;;;;;;6.68;1.50;;;;;;;-146.27;54.84;81231.31;5018608;28;20022;-71
2023/09/30 10:30:18;;;;;;;4.82;2.00;;;;;;;-146.27;55.61;81279.50;5026056;28;20033;-71
2023/09/30 10:32:53;;;;;;;6.20;1.90;;;;;;;-146.27;58.13;81219.25;5018221;28;20547;-73
2023/09/30 10:35:20;;;;;;;11.70;2.58;;;;;;;-146.27;58.57;81203.19;5010671;28;20553;-71
2023/09/30 10:37:46;;;;;;;9.63;2.00;;;;;;;-146.27;58.11;81235.31;5014151;28;20092;-71
2023/09/30 10:40:28;;;;;;;13.65;2.33;;;;;;;-146.27;55.84;81233.31;5024394;28;20060;-70
2023/09/30 10:42:55;;;;;;;8.35;1.77;;;;;;;-146.27;56.65;81227.28;5028428;28;20393;-71
2023/09/30 10:45:44;;;;;;;7.10;1.80;;;;;;;-146.27;56.49;81231.31;5028007;28;20034;-72
2023/09/30 10:48:25;;;;;;;10.63;1.55;;;;;;;-146.27;56.62;81245.34;5017137;28;20021;-72
2023/09/30 10:50:52;;;;;;;6.45;2.20;;;;;;;-146.27;58.28;81211.22;5023847;28;20022;-73
2023/09/30 10:53:18;;;;;;;8.68;1.83;;;;;;;-146.27;58.92;81239.34;5018246;28;20110;-73
2023/09/30 10:55:46;;;;;;;8.10;1.63;;;;;;;-146.27;58.89;81229.28;5027229;28;20118;-74
2023/09/30 10:58:13;;;;;;;6.95;1.80;;;;;;;-146.27;59.47;81211.22;5020042;28;20025;-72
2023/09/30 11:00:38;;;;;;;6.78;2.53;;;;;;;-146.27;59.28;81231.31;5015471;28;20037;-73
2023/09/30 11:03:05;;;;;;;6.60;1.98;;;;;;;-146.27;59.31;81201.19;5032418;28;20067;-72
2023/09/30 11:05:34;;;;;;;10.35;2.20;;;;;;;-146.27;59.53;81225.28;5027862;28;20068;-72
2023/09/30 11:08:03;;;;;;;7.25;1.60;;;;;;;-146.27;57.04;81195.16;5028990;28;20014;-72